Time;durP1;ratioP1;P1;durP2;ratioP2;P2;SDS_P1;SDS_P2;PMS_P1;PMS_P2;Temp;Humidity;BMP_temperature;BMP_pressure;BME280_temperature;BME280_humidity;BME280_pressure;Samples;Min_cycle;Max_cycle;Signal;HPM_P1;HPM_P2
2022/12/29 00:01:39;;;;;;;3.57;2.10;;;16.60;53.40;;;;;;5092255;28;20488;-71
2022/12/29 00:04:08;;;;;;;2.03;1.60;;;16.60;53.40;;;;;;5093229;28;20946;-72
2022/12/29 00:06:35;;;;;;;2.00;1.70;;;16.60;53.40;;;;;;5095508;28;20442;-70
2022/12/29 00:09:02;;;;;;;1.40;1.30;;;16.60;53.30;;;;;;5095202;28;20537;-70
2022/12/29 00:11:29;;;;;;;1.70;1.60;;;16.60;53.40;;;;;;5095329;28;20450;-72
2022/12/29 00:16:46;;;;;;;2.30;1.47;;;16.60;53.40;;;;;;5094604;28;20865;-72
2022/12/29 00:35:45;;;;;;;1.80;1.40;;;16.40;54.20;;;;;;5094765;28;21011;-71
2022/12/29 00:46:28;;;;;;;2.50;1.50;;;16.40;54.30;;;;;;5093813;28;20470;-71
2022/12/29 00:51:41;;;;;;;3.50;1.63;;;16.30;54.50;;;;;;5094463;28;20430;-72
2022/12/29 00:54:08;;;;;;;2.53;1.87;;;16.30;54.60;;;;;;5082506;28;20460;-72
2022/12/29 00:56:37;;;;;;;1.87;1.30;;;16.40;54.80;;;;;;5090576;28;20478;-71
2022/12/29 00:59:05;;;;;;;2.73;1.57;;;16.40;54.80;;;;;;5095051;28;20810;-72
2022/12/29 01:01:33;;;;;;;3.07;1.50;;;16.40;55.10;;;;;;5087691;28;20469;-71
2022/12/29 01:03:59;;;;;;;2.57;1.40;;;16.40;55.20;;;;;;5094831;28;20454;-72
2022/12/29 01:06:27;;;;;;;2.00;1.50;;;16.30;55.90;;;;;;5094609;28;20455;-72
2022/12/29 01:11:36;;;;;;;2.47;1.77;;;16.30;56.60;;;;;;5093382;28;20438;-72
2022/12/29 01:14:03;;;;;;;2.20;1.50;;;16.20;56.90;;;;;;5082054;28;20443;-72
2022/12/29 01:16:30;;;;;;;2.00;1.83;;;16.30;57.20;;;;;;5092931;28;21155;-72
2022/12/29 01:18:57;;;;;;;3.27;1.60;;;16.20;57.20;;;;;;5094119;28;20450;-72
2022/12/29 01:21:24;;;;;;;4.23;1.60;;;16.20;57.90;;;;;;5094176;28;20451;-72
2022/12/29 01:23:51;;;;;;;2.70;2.00;;;16.20;57.50;;;;;;5094157;28;20454;-72
2022/12/29 01:26:19;;;;;;;1.93;1.73;;;16.20;57.40;;;;;;5093847;28;20447;-72
2022/12/29 01:28:46;;;;;;;2.17;1.80;;;16.20;57.20;;;;;;5093541;28;20806;-72
2022/12/29 01:31:15;;;;;;;1.97;1.70;;;16.20;57.30;;;;;;5094153;28;20457;-72
2022/12/29 01:33:43;;;;;;;2.00;1.80;;;16.30;57.10;;;;;;5093735;28;20442;-72
2022/12/29 01:36:12;;;;;;;3.33;1.80;;;16.20;57.00;;;;;;5089667;28;20829;-72
2022/12/29 01:38:40;;;;;;;2.33;1.70;;;16.10;56.90;;;;;;5073710;28;20505;-71
2022/12/29 01:41:07;;;;;;;2.83;1.50;;;16.10;57.10;;;;;;5079062;28;20454;-72
2022/12/29 01:43:42;;;;;;;2.00;1.80;;;16.10;57.00;;;;;;5093033;28;20446;-72
2022/12/29 01:46:20;;;;;;;2.03;1.70;;;16.10;57.20;;;;;;5093051;28;20470;-72
2022/12/29 01:48:49;;;;;;;3.23;1.80;;;16.00;57.20;;;;;;5092203;28;20450;-72
2022/12/29 01:51:17;;;;;;;4.50;1.70;;;16.00;57.80;;;;;;5094039;28;20445;-72
2022/12/29 01:53:47;;;;;;;1.70;1.60;;;16.00;57.10;;;;;;5091336;28;20932;-72
2022/12/29 01:56:17;;;;;;;5.77;1.70;;;16.00;57.10;;;;;;5093264;28;20500;-72
2022/12/29 01:58:49;;;;;;;2.27;1.50;;;16.10;57.20;;;;;;5092868;28;20570;-72
2022/12/29 02:01:20;;;;;;;2.97;1.60;;;16.10;57.20;;;;;;5094187;28;20437;-72
2022/12/29 02:03:47;;;;;;;3.30;1.70;;;16.20;57.20;;;;;;5093348;28;20434;-72
2022/12/29 02:06:18;;;;;;;2.53;1.63;;;16.20;57.10;;;;;;5093053;28;20451;-72
2022/12/29 02:08:47;;;;;;;2.03;1.50;;;16.30;57.10;;;;;;5090708;28;20423;-72
2022/12/29 02:11:16;;;;;;;3.70;1.80;;;16.30;56.90;;;;;;5093190;28;20438;-72
2022/12/29 02:13:44;;;;;;;3.13;1.77;;;16.30;56.90;;;;;;5092292;28;20461;-72
2022/12/29 02:16:34;;;;;;;3.30;1.70;;;16.40;56.90;;;;;;5093246;28;20470;-72
2022/12/29 02:19:41;;;;;;;3.27;1.90;;;16.40;56.70;;;;;;5091013;28;20491;-72
2022/12/29 02:22:21;;;;;;;1.93;1.80;;;16.30;56.70;;;;;;5050751;28;20448;-72
2022/12/29 02:25:16;;;;;;;2.97;1.73;;;16.30;57.00;;;;;;5086172;28;20449;-72
2022/12/29 02:27:56;;;;;;;4.30;2.00;;;16.20;56.90;;;;;;5092397;28;20442;-72
2022/12/29 02:30:44;;;;;;;1.67;1.57;;;16.20;57.00;;;;;;5093015;28;20462;-72
2022/12/29 02:33:23;;;;;;;2.27;1.97;;;16.20;56.90;;;;;;5084596;28;20439;-71
2022/12/29 02:35:57;;;;;;;2.07;1.70;;;16.20;56.70;;;;;;5092623;28;20933;-72
2022/12/29 02:38:34;;;;;;;1.80;1.57;;;16.20;56.80;;;;;;5092980;28;20481;-72
2022/12/29 02:41:09;;;;;;;3.00;1.60;;;16.10;56.80;;;;;;5093039;28;20461;-71
2022/12/29 02:43:44;;;;;;;2.97;1.50;;;16.10;57.40;;;;;;5092041;28;20439;-72
2022/12/29 02:46:18;;;;;;;2.70;1.57;;;16.10;56.80;;;;;;5092664;28;20480;-72
2022/12/29 02:48:52;;;;;;;2.10;1.60;;;16.10;56.80;;;;;;5092739;28;20570;-72
2022/12/29 02:51:24;;;;;;;1.50;1.33;;;16.10;56.70;;;;;;5092942;28;20480;-72
2022/12/29 02:56:37;;;;;;;3.40;1.50;;;16.30;56.80;;;;;;5085781;28;20417;-72
2022/12/29 02:59:04;;;;;;;1.90;1.80;;;16.20;56.90;;;;;;5092537;28;20488;-72
2022/12/29 03:02:16;;;;;;;2.37;1.50;;;16.30;57.20;;;;;;5093071;28;20446;-72
2022/12/29 03:04:41;;;;;;;2.00;1.63;;;16.30;57.50;;;;;;5092005;28;20434;-72
2022/12/29 03:07:16;;;;;;;4.40;1.50;;;16.30;57.50;;;;;;5091741;28;20426;-72
2022/12/29 03:09:53;;;;;;;2.37;1.40;;;16.20;57.30;;;;;;5073123;28;20430;-72
2022/12/29 03:18:13;;;;;;;2.57;1.60;;;16.00;57.40;;;;;;5092336;28;20490;-71
2022/12/29 03:20:46;;;;;;;1.93;1.20;;;16.10;57.40;;;;;;5091217;28;20432;-72
2022/12/29 03:23:14;;;;;;;3.27;1.57;;;16.00;57.20;;;;;;5091690;28;20993;-72
2022/12/29 03:25:47;;;;;;;1.97;1.50;;;16.10;57.40;;;;;;5082535;28;20528;-72
2022/12/29 03:28:18;;;;;;;3.63;1.60;;;16.10;57.30;;;;;;5092131;28;20913;-72
2022/12/29 03:30:47;;;;;;;2.23;1.20;;;16.20;57.30;;;;;;5079000;28;20985;-72
2022/12/29 03:33:20;;;;;;;3.40;2.07;;;16.10;56.80;;;;;;5074855;28;20458;-72
2022/12/29 03:35:49;;;;;;;2.63;1.40;;;16.10;57.00;;;;;;5091326;28;20513;-72
2022/12/29 03:38:20;;;;;;;3.43;1.40;;;16.10;56.80;;;;;;5092376;28;20478;-72
2022/12/29 03:40:52;;;;;;;4.70;1.63;;;16.10;56.70;;;;;;5091258;28;20446;-72
2022/12/29 03:43:20;;;;;;;1.73;1.40;;;16.10;56.60;;;;;;5092068;28;20438;-72
2022/12/29 03:45:47;;;;;;;2.10;1.40;;;16.10;56.30;;;;;;5091572;28;20505;-72
2022/12/29 03:48:15;;;;;;;1.93;1.40;;;16.10;56.40;;;;;;5092129;28;20450;-71
2022/12/29 03:50:42;;;;;;;1.30;1.20;;;16.10;56.40;;;;;;5091738;28;20449;-72
2022/12/29 03:53:09;;;;;;;1.70;1.50;;;16.20;56.40;;;;;;5092031;28;20965;-72
2022/12/29 03:55:36;;;;;;;1.80;1.50;;;16.20;55.90;;;;;;5091505;28;20454;-72
2022/12/29 03:58:03;;;;;;;2.60;1.50;;;16.20;56.00;;;;;;5091751;28;20483;-72
2022/12/29 04:00:30;;;;;;;1.87;1.30;;;16.10;55.80;;;;;;5092050;28;20922;-72
2022/12/29 04:02:57;;;;;;;1.70;1.33;;;16.10;55.80;;;;;;5082877;28;20458;-72
2022/12/29 04:05:25;;;;;;;2.23;1.70;;;16.10;55.90;;;;;;5092193;28;20541;-72
2022/12/29 04:07:52;;;;;;;2.73;1.37;;;16.10;55.90;;;;;;5091243;28;20439;-72
2022/12/29 04:10:19;;;;;;;2.30;1.40;;;16.10;55.90;;;;;;5091679;28;20447;-72
2022/12/29 04:12:46;;;;;;;4.03;1.60;;;16.10;55.70;;;;;;5091557;28;20780;-72
2022/12/29 04:15:13;;;;;;;2.97;1.60;;;16.10;55.80;;;;;;5091622;28;20567;-72
2022/12/29 04:17:40;;;;;;;1.77;1.40;;;16.00;55.90;;;;;;5075610;28;20486;-72
2022/12/29 04:23:00;;;;;;;1.97;1.70;;;16.00;56.10;;;;;;5090770;28;20418;-72
2022/12/29 04:25:27;;;;;;;1.40;1.30;;;15.90;56.00;;;;;;5092026;28;20495;-72
2022/12/29 04:27:54;;;;;;;2.33;1.60;;;15.90;56.10;;;;;;5091458;28;20443;-72
2022/12/29 04:30:21;;;;;;;1.60;1.50;;;16.00;56.10;;;;;;5091993;28;20446;-72
2022/12/29 04:32:48;;;;;;;1.97;1.50;;;16.00;56.10;;;;;;5093977;28;20457;-72
2022/12/29 04:35:15;;;;;;;2.07;1.60;;;16.00;55.90;;;;;;5093090;28;20447;-71
2022/12/29 04:37:41;;;;;;;1.87;1.70;;;16.00;55.80;;;;;;5074183;28;20490;-72
2022/12/29 04:40:11;;;;;;;2.60;1.50;;;16.00;55.80;;;;;;5092356;28;20922;-72
2022/12/29 04:42:38;;;;;;;1.80;1.33;;;16.00;55.80;;;;;;5095240;28;20933;-72
2022/12/29 04:45:06;;;;;;;1.53;1.40;;;16.00;55.70;;;;;;5094632;28;20537;-71
2022/12/29 04:47:33;;;;;;;3.10;1.60;;;15.90;55.70;;;;;;5095299;28;20777;-72
2022/12/29 04:49:59;;;;;;;2.80;1.60;;;16.00;55.80;;;;;;5094351;28;20458;-72
2022/12/29 04:52:26;;;;;;;2.17;1.73;;;16.00;55.80;;;;;;5092774;28;20446;-73
2022/12/29 04:54:53;;;;;;;3.77;1.60;;;16.00;55.90;;;;;;5093797;28;20453;-72
2022/12/29 04:57:21;;;;;;;1.97;1.77;;;15.90;55.90;;;;;;5094832;28;20457;-72
2022/12/29 04:59:48;;;;;;;2.20;1.53;;;16.00;56.10;;;;;;5094473;28;20904;-72
2022/12/29 05:02:15;;;;;;;1.60;1.43;;;16.00;56.20;;;;;;5095176;28;20470;-72
2022/12/29 05:04:42;;;;;;;1.70;1.60;;;16.00;56.10;;;;;;5094125;28;20450;-72
2022/12/29 05:07:09;;;;;;;1.60;1.50;;;16.00;56.20;;;;;;5094425;28;20446;-72
2022/12/29 05:09:36;;;;;;;3.23;1.80;;;16.00;56.70;;;;;;5094085;28;20447;-72
2022/12/29 05:12:03;;;;;;;2.20;1.70;;;16.00;56.10;;;;;;5094053;28;20527;-72
2022/12/29 05:14:31;;;;;;;1.80;1.50;;;16.10;56.30;;;;;;5093044;28;20878;-72
2022/12/29 05:16:58;;;;;;;2.20;1.80;;;16.00;56.30;;;;;;5093994;28;20471;-72
2022/12/29 05:19:24;;;;;;;2.00;1.60;;;16.10;56.40;;;;;;5094257;28;20482;-72
2022/12/29 05:21:51;;;;;;;2.10;1.90;;;16.10;56.40;;;;;;5094167;28;20786;-72
2022/12/29 05:24:18;;;;;;;1.97;1.73;;;16.20;56.50;;;;;;5094618;28;20453;-73
2022/12/29 05:26:45;;;;;;;2.27;1.90;;;16.20;56.50;;;;;;5093747;28;20451;-72
2022/12/29 05:29:12;;;;;;;1.90;1.70;;;16.20;56.40;;;;;;5094316;28;20449;-72
2022/12/29 05:31:40;;;;;;;5.07;1.77;;;16.20;56.50;;;;;;5094375;28;20474;-72
2022/12/29 05:34:07;;;;;;;3.67;1.57;;;16.20;56.60;;;;;;5093887;28;20453;-72
2022/12/29 05:36:34;;;;;;;1.47;1.37;;;16.20;56.50;;;;;;5094139;28;20783;-72
2022/12/29 05:39:01;;;;;;;2.53;1.70;;;16.20;56.60;;;;;;5093291;28;20820;-71
2022/12/29 05:41:28;;;;;;;1.97;1.80;;;16.20;56.50;;;;;;5094161;28;20450;-72
2022/12/29 05:43:55;;;;;;;2.07;1.87;;;16.20;56.60;;;;;;5092772;28;20461;-72
2022/12/29 05:46:21;;;;;;;1.93;1.83;;;16.30;56.70;;;;;;5092228;28;20478;-72
2022/12/29 05:48:50;;;;;;;2.23;1.90;;;16.30;56.60;;;;;;5081730;28;20461;-72
2022/12/29 05:51:16;;;;;;;3.63;1.83;;;16.30;56.60;;;;;;5093925;28;20798;-72
2022/12/29 05:53:43;;;;;;;2.83;1.90;;;16.30;56.70;;;;;;5093737;28;20449;-72
2022/12/29 05:56:10;;;;;;;1.87;1.77;;;16.30;56.60;;;;;;5093518;28;20450;-72
2022/12/29 05:58:37;;;;;;;2.60;1.70;;;16.30;56.50;;;;;;5093625;28;20478;-72
2022/12/29 06:01:06;;;;;;;1.83;1.63;;;16.30;56.50;;;;;;5093325;28;20443;-72
2022/12/29 06:03:33;;;;;;;2.00;1.80;;;16.40;57.10;;;;;;5091399;28;20918;-72
2022/12/29 06:06:01;;;;;;;2.33;1.50;;;16.40;56.50;;;;;;5092464;28;20450;-72
2022/12/29 06:08:28;;;;;;;2.00;1.50;;;16.40;56.50;;;;;;5093025;28;20942;-72
2022/12/29 06:10:55;;;;;;;2.43;1.57;;;16.40;56.40;;;;;;5093200;28;20766;-72
2022/12/29 06:13:22;;;;;;;3.73;1.90;;;16.40;56.40;;;;;;5093751;28;20524;-71
2022/12/29 06:15:50;;;;;;;2.17;1.63;;;16.40;56.40;;;;;;5092840;28;20473;-72
2022/12/29 06:18:17;;;;;;;3.00;1.70;;;16.40;56.40;;;;;;5093004;28;20485;-72
2022/12/29 06:20:43;;;;;;;1.80;1.70;;;16.40;56.30;;;;;;5093551;28;20450;-72
2022/12/29 06:23:13;;;;;;;1.83;1.70;;;16.40;56.20;;;;;;5092686;28;20450;-72
2022/12/29 06:25:39;;;;;;;2.87;1.90;;;16.50;56.10;;;;;;5092547;28;20969;-72
2022/12/29 06:28:06;;;;;;;3.00;1.90;;;16.50;56.00;;;;;;5091485;28;20451;-72
2022/12/29 06:30:33;;;;;;;2.73;1.40;;;16.50;56.00;;;;;;5093474;28;20443;-72
2022/12/29 06:33:01;;;;;;;2.23;1.70;;;16.50;55.90;;;;;;5091495;28;20450;-72
2022/12/29 06:35:28;;;;;;;3.07;1.60;;;16.50;55.80;;;;;;5093408;28;20449;-71
2022/12/29 06:37:55;;;;;;;3.30;2.00;;;16.50;55.50;;;;;;5092679;28;20813;-71
2022/12/29 06:40:23;;;;;;;2.40;1.50;;;16.50;55.50;;;;;;5093252;28;20485;-71
2022/12/29 06:42:52;;;;;;;2.30;1.73;;;16.50;55.50;;;;;;5092795;28;20455;-71
2022/12/29 06:45:19;;;;;;;2.57;1.73;;;16.50;55.50;;;;;;5092678;28;20454;-72
2022/12/29 06:47:46;;;;;;;2.63;1.90;;;16.40;55.30;;;;;;5092800;28;20423;-72
2022/12/29 06:50:13;;;;;;;2.73;1.70;;;16.50;55.20;;;;;;5090440;28;21120;-72
2022/12/29 06:52:40;;;;;;;2.20;2.00;;;16.50;55.10;;;;;;5092676;28;20809;-72
2022/12/29 06:55:08;;;;;;;3.50;2.17;;;16.50;55.00;;;;;;5092237;28;20445;-71
2022/12/29 06:57:36;;;;;;;2.40;1.60;;;16.50;54.90;;;;;;5093027;28;20474;-72
2022/12/29 07:00:04;;;;;;;2.27;1.90;;;16.50;54.90;;;;;;5091801;28;21021;-72
2022/12/29 07:02:31;;;;;;;3.30;1.93;;;16.50;54.90;;;;;;5092234;28;20458;-72
2022/12/29 07:04:58;;;;;;;3.97;2.03;;;16.50;54.70;;;;;;5091355;28;20455;-72
2022/12/29 07:07:25;;;;;;;2.67;1.80;;;16.60;54.80;;;;;;5086035;28;20542;-71
2022/12/29 07:09:52;;;;;;;1.77;1.67;;;16.60;54.60;;;;;;5074408;28;20447;-71
2022/12/29 07:12:18;;;;;;;2.43;2.00;;;16.60;54.60;;;;;;5072276;28;20454;-72
2022/12/29 07:14:47;;;;;;;3.23;1.90;;;16.50;54.40;;;;;;5090140;28;20901;-72
2022/12/29 07:17:14;;;;;;;2.50;1.80;;;16.50;54.60;;;;;;5091354;28;20476;-72
2022/12/29 07:19:41;;;;;;;2.37;1.70;;;16.60;54.70;;;;;;5092243;28;20485;-71
2022/12/29 07:22:07;;;;;;;5.43;2.20;;;16.60;54.60;;;;;;5089679;28;20454;-72
2022/12/29 07:24:34;;;;;;;3.17;1.80;;;16.50;54.30;;;;;;5092042;28;20450;-72
2022/12/29 07:27:01;;;;;;;3.37;1.97;;;16.50;54.20;;;;;;5091892;28;20541;-72
2022/12/29 07:29:28;;;;;;;2.10;1.67;;;16.60;54.10;;;;;;5092298;28;20446;-72
2022/12/29 07:31:56;;;;;;;2.87;1.83;;;16.60;54.10;;;;;;5091223;28;20542;-72
2022/12/29 07:34:23;;;;;;;3.07;1.80;;;16.60;53.80;;;;;;5092473;28;20453;-72
2022/12/29 07:36:50;;;;;;;1.70;1.60;;;16.60;53.70;;;;;;5083874;28;20457;-73
2022/12/29 07:39:17;;;;;;;3.30;2.00;;;16.60;53.80;;;;;;5079749;28;20481;-72
2022/12/29 07:41:44;;;;;;;2.97;1.70;;;16.60;53.50;;;;;;5078157;28;20446;-72
2022/12/29 07:44:11;;;;;;;3.53;1.87;;;16.60;53.70;;;;;;5086871;28;20581;-72
2022/12/29 07:46:37;;;;;;;3.03;1.97;;;16.60;53.60;;;;;;5091568;28;21016;-72
2022/12/29 07:49:06;;;;;;;2.60;1.80;;;16.60;53.70;;;;;;5092148;28;20453;-72
2022/12/29 07:51:33;;;;;;;1.90;1.80;;;16.60;53.50;;;;;;5092367;28;20450;-72
2022/12/29 07:54:00;;;;;;;2.10;1.90;;;16.60;53.50;;;;;;5091745;28;20537;-72
2022/12/29 07:56:27;;;;;;;3.43;1.90;;;16.60;53.50;;;;;;5092588;28;20449;-72
2022/12/29 07:58:54;;;;;;;2.23;1.57;;;16.70;53.50;;;;;;5083041;28;20490;-72
2022/12/29 08:01:23;;;;;;;2.33;1.80;;;16.70;53.30;;;;;;5072000;28;20449;-72
2022/12/29 08:03:50;;;;;;;2.43;2.03;;;16.70;53.20;;;;;;5081015;28;20457;-71
2022/12/29 08:06:19;;;;;;;3.30;2.10;;;16.70;53.10;;;;;;5082521;28;20450;-72
2022/12/29 08:08:46;;;;;;;2.10;1.90;;;16.70;53.20;;;;;;5095719;28;20481;-72
2022/12/29 08:11:13;;;;;;;2.13;1.73;;;16.70;53.10;;;;;;5094956;28;20450;-72
2022/12/29 08:13:40;;;;;;;3.10;1.63;;;16.70;53.10;;;;;;5095409;28;20475;-72
2022/12/29 08:16:07;;;;;;;2.33;1.90;;;16.60;53.00;;;;;;5095185;28;20469;-72
2022/12/29 08:18:34;;;;;;;1.93;1.73;;;16.60;53.20;;;;;;5095704;28;20541;-71
2022/12/29 08:21:03;;;;;;;5.43;2.43;;;16.60;53.10;;;;;;5095354;28;20806;-72
2022/12/29 08:23:32;;;;;;;3.10;1.70;;;16.60;53.10;;;;;;5095563;28;20461;-72
2022/12/29 08:25:59;;;;;;;3.07;1.97;;;16.60;53.00;;;;;;5095180;28;20446;-72
2022/12/29 08:28:26;;;;;;;2.73;1.93;;;16.70;53.10;;;;;;5095590;28;20507;-72
2022/12/29 08:30:53;;;;;;;4.03;2.17;;;16.60;53.10;;;;;;5095382;28;21004;-72
2022/12/29 08:33:20;;;;;;;3.50;1.90;;;16.60;53.10;;;;;;5055874;28;20450;-72
2022/12/29 08:35:47;;;;;;;4.00;1.90;;;16.70;53.10;;;;;;5076646;28;20539;-73
2022/12/29 08:38:14;;;;;;;3.23;1.73;;;16.70;53.00;;;;;;5095253;28;20723;-72
2022/12/29 08:40:42;;;;;;;2.97;2.17;;;16.70;53.10;;;;;;5095169;28;20997;-72
2022/12/29 08:43:09;;;;;;;3.47;1.93;;;16.70;53.10;;;;;;5094441;28;20453;-72
2022/12/29 08:45:36;;;;;;;2.47;1.60;;;16.70;53.10;;;;;;5094754;28;20576;-72
2022/12/29 08:48:03;;;;;;;3.07;1.67;;;16.70;52.90;;;;;;5094860;28;20458;-72
2022/12/29 08:50:29;;;;;;;2.43;1.70;;;16.70;53.20;;;;;;5095494;28;20456;-72
2022/12/29 08:52:56;;;;;;;3.07;1.87;;;16.70;53.10;;;;;;5094848;28;20450;-72
2022/12/29 08:55:23;;;;;;;1.93;1.63;;;16.70;53.10;;;;;;5095277;28;20469;-71
2022/12/29 08:57:51;;;;;;;4.13;2.07;;;16.70;53.10;;;;;;5094768;28;20447;-72
2022/12/29 09:00:20;;;;;;;2.10;1.63;;;16.80;53.20;;;;;;5076666;28;20491;-72
2022/12/29 09:02:47;;;;;;;2.93;2.03;;;16.80;53.30;;;;;;5087884;28;20537;-72
2022/12/29 09:05:13;;;;;;;2.47;1.80;;;16.80;53.10;;;;;;5094622;28;20958;-72
2022/12/29 09:07:41;;;;;;;3.40;1.80;;;16.90;53.20;;;;;;5094914;28;20784;-71
2022/12/29 09:10:08;;;;;;;2.87;2.13;;;17.00;53.00;;;;;;5093991;28;20446;-72
2022/12/29 09:12:35;;;;;;;2.80;1.80;;;16.90;53.00;;;;;;5094049;28;20450;-71
2022/12/29 09:15:04;;;;;;;1.80;1.70;;;17.00;53.00;;;;;;5094005;28;20785;-72
2022/12/29 09:17:43;;;;;;;3.07;1.77;;;17.00;52.90;;;;;;5093940;28;20500;-72
2022/12/29 09:20:11;;;;;;;3.60;1.77;;;17.00;53.00;;;;;;5074106;28;20475;-72
2022/12/29 09:22:38;;;;;;;3.43;1.53;;;17.00;53.10;;;;;;5089411;28;20453;-72
2022/12/29 09:25:05;;;;;;;1.70;1.57;;;17.10;53.20;;;;;;5093677;28;20438;-72
2022/12/29 09:27:32;;;;;;;1.70;1.60;;;17.10;53.10;;;;;;5093973;28;20922;-72
2022/12/29 09:29:59;;;;;;;1.97;1.77;;;17.20;53.20;;;;;;5092963;28;20442;-72
2022/12/29 09:32:27;;;;;;;2.73;1.90;;;17.20;53.10;;;;;;5093826;28;20478;-72
2022/12/29 09:34:54;;;;;;;1.93;1.80;;;17.20;53.20;;;;;;5094569;28;20442;-72
2022/12/29 09:37:21;;;;;;;2.57;1.70;;;17.20;53.20;;;;;;5093696;28;20457;-72
2022/12/29 09:39:48;;;;;;;2.27;1.73;;;17.20;54.20;;;;;;5094174;28;20478;-72
2022/12/29 09:42:20;;;;;;;3.67;1.63;;;17.10;53.50;;;;;;5092998;28;20445;-72
2022/12/29 09:45:01;;;;;;;2.17;1.60;;;17.10;53.80;;;;;;5094268;28;20439;-72
2022/12/29 09:47:30;;;;;;;2.00;1.60;;;17.20;54.20;;;;;;5093031;28;20979;-72
2022/12/29 09:50:02;;;;;;;2.00;1.63;;;17.10;54.50;;;;;;5089669;28;20553;-72
2022/12/29 09:52:33;;;;;;;1.70;1.53;;;17.10;54.30;;;;;;5088655;28;20461;-72
2022/12/29 09:55:03;;;;;;;2.83;1.50;;;17.10;54.30;;;;;;5092574;28;20768;-71
2022/12/29 09:57:37;;;;;;;3.27;1.50;;;17.20;54.50;;;;;;5090480;28;20452;-72
2022/12/29 10:00:11;;;;;;;1.87;1.53;;;17.10;54.60;;;;;;5087198;28;20574;-72
2022/12/29 10:02:43;;;;;;;2.57;1.90;;;17.20;54.60;;;;;;5092573;28;20441;-73
2022/12/29 10:05:25;;;;;;;2.67;1.70;;;17.30;54.60;;;;;;5093501;28;20518;-72
2022/12/29 10:08:03;;;;;;;2.17;1.67;;;17.20;55.30;;;;;;5093282;28;20518;-72
2022/12/29 10:10:37;;;;;;;1.53;1.37;;;17.30;55.50;;;;;;5093181;28;20431;-73
2022/12/29 10:13:21;;;;;;;2.00;1.50;;;17.20;55.80;;;;;;5092644;28;20910;-72
2022/12/29 10:15:58;;;;;;;2.53;1.90;;;17.00;56.00;;;;;;5093563;28;20430;-73
2022/12/29 10:18:45;;;;;;;2.13;1.97;;;17.00;56.70;;;;;;5092601;28;21022;-73
2022/12/29 10:21:24;;;;;;;1.87;1.70;;;17.00;57.40;;;;;;5092704;28;20833;-72
2022/12/29 10:23:52;;;;;;;1.50;1.40;;;16.80;58.10;;;;;;5093245;28;20514;-72
2022/12/29 10:26:23;;;;;;;2.03;1.60;;;16.70;58.30;;;;;;5091027;28;20472;-72
2022/12/29 10:28:53;;;;;;;2.70;2.00;;;16.60;58.50;;;;;;5091131;28;20519;-71
2022/12/29 10:31:23;;;;;;;2.87;1.90;;;16.60;58.90;;;;;;5091194;28;20533;-71
2022/12/29 10:33:58;;;;;;;2.30;1.83;;;16.60;59.20;;;;;;5093114;28;20485;-71
2022/12/29 10:36:31;;;;;;;4.10;2.17;;;16.60;59.50;;;;;;5092961;28;20435;-72
2022/12/29 10:39:06;;;;;;;3.50;2.10;;;16.60;59.40;;;;;;5092302;28;20454;-71
2022/12/29 10:41:40;;;;;;;2.30;1.97;;;16.70;59.70;;;;;;5093065;28;20465;-72
2022/12/29 10:44:10;;;;;;;4.20;2.00;;;16.70;59.70;;;;;;5081251;28;20442;-73
2022/12/29 10:46:38;;;;;;;2.43;1.87;;;16.70;59.80;;;;;;5092565;28;21001;-72
2022/12/29 10:49:13;;;;;;;3.07;1.90;;;16.90;60.10;;;;;;5091797;28;20457;-71
2022/12/29 10:51:45;;;;;;;4.43;2.00;;;16.90;59.60;;;;;;5081555;28;20521;-72
2022/12/29 10:54:15;;;;;;;1.93;1.77;;;16.80;59.20;;;;;;5092262;28;20427;-72
2022/12/29 10:56:47;;;;;;;3.17;2.23;;;16.90;59.60;;;;;;5092862;28;20604;-72
2022/12/29 10:59:19;;;;;;;2.13;1.90;;;17.00;59.60;;;;;;5091755;28;21021;-71
2022/12/29 11:01:55;;;;;;;3.27;1.90;;;17.10;59.30;;;;;;5057106;28;20482;-68
2022/12/29 11:04:48;;;;;;;2.13;1.87;;;17.30;59.40;;;;;;5091890;28;20453;-71
2022/12/29 11:07:18;;;;;;;2.30;2.00;;;17.40;59.50;;;;;;5092294;28;20433;-72
2022/12/29 11:09:46;;;;;;;2.00;1.63;;;17.50;58.90;;;;;;5092147;28;21018;-71
2022/12/29 11:12:25;;;;;;;2.17;1.83;;;17.40;58.30;;;;;;5091948;28;20458;-71
2022/12/29 11:15:11;;;;;;;3.20;2.20;;;17.40;58.80;;;;;;5087157;28;20456;-70
2022/12/29 11:17:45;;;;;;;2.20;1.80;;;17.30;58.50;;;;;;5091629;28;20459;-72
2022/12/29 11:20:33;;;;;;;2.13;1.93;;;17.20;57.80;;;;;;5091376;28;21110;-70
2022/12/29 11:23:01;;;;;;;2.73;1.80;;;17.10;58.10;;;;;;5092063;28;20545;-71
2022/12/29 11:25:28;;;;;;;1.93;1.73;;;17.20;58.30;;;;;;5091002;28;20458;-71
2022/12/29 11:28:03;;;;;;;1.87;1.60;;;17.40;58.30;;;;;;5090745;28;20561;-71
2022/12/29 11:30:32;;;;;;;2.30;1.80;;;17.40;58.00;;;;;;5081458;28;20466;-71
2022/12/29 11:33:03;;;;;;;2.43;1.80;;;17.50;57.70;;;;;;5075310;28;20449;-71
2022/12/29 11:35:35;;;;;;;3.90;1.87;;;17.60;57.50;;;;;;5090564;28;20921;-71
2022/12/29 11:38:03;;;;;;;3.10;1.80;;;17.70;57.50;;;;;;5091680;28;20776;-70
2022/12/29 11:40:31;;;;;;;3.93;2.00;;;17.50;56.60;;;;;;5091954;28;20517;-72
2022/12/29 11:43:02;;;;;;;1.90;1.70;;;17.60;57.00;;;;;;5096372;28;20462;-72
2022/12/29 11:45:32;;;;;;;1.97;1.60;;;17.70;56.80;;;;;;5095756;28;20489;-71
2022/12/29 11:48:02;;;;;;;2.10;1.50;;;17.70;56.40;;;;;;5110514;28;20492;-72
2022/12/29 11:50:33;;;;;;;2.10;1.60;;;17.70;56.50;;;;;;5096496;28;20805;-71
2022/12/29 11:53:02;;;;;;;3.70;1.67;;;17.70;56.10;;;;;;5095706;28;20433;-71
2022/12/29 11:55:31;;;;;;;2.40;1.77;;;17.70;56.40;;;;;;5095084;28;20458;-72
2022/12/29 11:58:03;;;;;;;2.77;1.60;;;17.90;56.30;;;;;;5096348;28;20500;-70
2022/12/29 12:00:33;;;;;;;1.93;1.73;;;17.90;56.00;;;;;;5096543;28;20466;-72
2022/12/29 12:03:02;;;;;;;1.67;1.57;;;17.80;55.80;;;;;;5096171;28;20516;-72
2022/12/29 12:05:38;;;;;;;2.60;1.83;;;17.80;55.90;;;;;;5096548;28;20481;-72
2022/12/29 12:08:13;;;;;;;2.70;1.80;;;17.80;55.70;;;;;;5075294;28;20439;-72
2022/12/29 12:10:45;;;;;;;2.00;1.80;;;17.90;56.10;;;;;;5087956;28;20857;-72
2022/12/29 12:13:21;;;;;;;2.73;1.53;;;17.90;55.80;;;;;;5074969;28;20984;-72
2022/12/29 12:15:54;;;;;;;2.30;1.23;;;17.90;55.60;;;;;;5094457;28;20499;-72
2022/12/29 12:18:31;;;;;;;1.40;1.30;;;17.70;55.50;;;;;;5094951;28;20454;-72
2022/12/29 12:21:09;;;;;;;1.77;1.50;;;17.70;56.30;;;;;;5095485;28;20868;-72
2022/12/29 12:23:53;;;;;;;2.03;1.53;;;17.70;55.50;;;;;;5095766;28;20545;-72
2022/12/29 12:26:22;;;;;;;1.07;1.07;;;17.60;55.60;;;;;;5093701;28;20466;-72
2022/12/29 12:28:54;;;;;;;1.30;1.20;;;17.50;55.50;;;;;;5095655;28;20442;-71
2022/12/29 12:31:37;;;;;;;2.17;0.90;;;17.50;55.50;;;;;;5095341;28;20525;-72
2022/12/29 12:34:08;;;;;;;1.27;1.20;;;17.50;55.90;;;;;;5095202;28;20511;-72
2022/12/29 12:37:04;;;;;;;1.30;1.20;;;17.50;55.30;;;;;;5094277;28;20196;-73
2022/12/29 12:39:42;;;;;;;1.47;1.10;;;17.50;55.50;;;;;;5065663;28;20814;-71
2022/12/29 12:42:22;;;;;;;1.23;1.13;;;17.50;55.30;;;;;;5082643;28;20470;-72
2022/12/29 12:44:58;;;;;;;1.97;1.20;;;17.50;55.50;;;;;;5095118;28;20951;-72
2022/12/29 12:47:48;;;;;;;1.57;1.10;;;17.40;55.50;;;;;;5099823;28;20489;-72
2022/12/29 12:50:48;;;;;;;2.00;1.13;;;17.40;55.80;;;;;;5092626;28;20486;-72
2022/12/29 12:53:42;;;;;;;1.20;1.10;;;17.50;55.80;;;;;;5089657;28;20455;-72
2022/12/29 12:56:28;;;;;;;1.87;1.00;;;17.40;55.90;;;;;;5090284;28;20472;-72
2022/12/29 12:59:03;;;;;;;1.30;1.20;;;17.40;56.20;;;;;;5115267;28;20941;-72
2022/12/29 13:01:40;;;;;;;2.67;1.70;;;17.40;56.30;;;;;;5106794;28;20861;-71
2022/12/29 13:04:44;;;;;;;2.47;1.50;;;17.40;56.60;;;;;;5088140;28;20449;-72
2022/12/29 13:07:25;;;;;;;1.77;1.47;;;17.60;56.70;;;;;;5091829;28;20621;-72
2022/12/29 13:10:17;;;;;;;1.83;1.57;;;17.50;56.40;;;;;;5094531;28;20481;-72
2022/12/29 13:12:53;;;;;;;2.80;1.50;;;17.40;56.80;;;;;;5095110;28;20422;-72
2022/12/29 13:15:36;;;;;;;2.73;1.63;;;17.60;56.80;;;;;;5091619;28;20531;-72
2022/12/29 13:18:13;;;;;;;2.87;1.60;;;17.60;56.60;;;;;;5098023;28;20531;-72
2022/12/29 13:20:46;;;;;;;1.60;1.50;;;17.60;56.70;;;;;;5094761;28;20575;-72
2022/12/29 13:23:24;;;;;;;1.97;1.30;;;17.60;56.70;;;;;;5093343;28;20443;-71
2022/12/29 13:26:00;;;;;;;1.63;1.13;;;17.50;56.60;;;;;;5094697;28;20438;-72
2022/12/29 13:28:33;;;;;;;1.50;1.40;;;17.40;56.60;;;;;;5100343;28;20500;-71
2022/12/29 13:31:05;;;;;;;1.60;1.50;;;17.50;56.90;;;;;;5090418;28;20931;-72
2022/12/29 13:33:41;;;;;;;2.03;1.27;;;17.50;56.80;;;;;;5094101;28;20813;-72
2022/12/29 13:36:19;;;;;;;2.60;1.30;;;17.50;56.90;;;;;;5093835;28;20445;-72
2022/12/29 13:38:49;;;;;;;1.93;1.40;;;17.40;56.90;;;;;;5093544;28;20458;-72
2022/12/29 13:41:22;;;;;;;1.40;1.30;;;17.30;57.20;;;;;;5094173;28;20577;-72
2022/12/29 13:43:51;;;;;;;1.73;1.20;;;17.10;59.00;;;;;;5094414;28;20514;-72
2022/12/29 13:46:24;;;;;;;1.77;1.23;;;17.00;58.80;;;;;;5093337;28;20478;-71
2022/12/29 13:48:54;;;;;;;1.30;1.20;;;16.90;59.10;;;;;;5091463;28;20787;-71
2022/12/29 13:51:23;;;;;;;1.30;1.20;;;16.80;59.60;;;;;;5093024;28;20453;-72